Data for 10/10/2013

Time Sea-Level Adjusted Pressure Absolute Pressure Temperature Relative Humidity Dew Point   
(mb) (inHg) (mb) (inHg) (C) (F) (%) (C) (F)
02:20 1012 29.88 841 24.83 2.6 36.7 79 -0.6 30.9
00:05 1013 29.91 842 24.86 3 37.4 78 -0.6 31
00:10 1013 29.91 842 24.86 3 37.4 77 -0.6 30.9
00:15 1013 29.91 842 24.86 3.1 37.7 77 -0.6 31
00:20 1013 29.91 842 24.86 3.1 37.6 77 -0.5 31.2
00:25 1013 29.91 842 24.86 3 37.4 78 -0.5 31.2
00:30 1013 29.91 842 24.86 3.1 37.5 78 -0.4 31.2
00:35 1013 29.91 842 24.86 3.2 37.8 77 -0.4 31.2
00:40 1013 29.91 842 24.86 3.3 37.9 77 -0.4 31.4
00:45 1013 29.91 842 24.86 3.3 38 76 -0.5 31.1
00:50 1013 29.91 842 24.86 3.1 37.6 78 -0.4 31.3
00:55 1013 29.91 842 24.86 3.1 37.6 77 -0.5 31.1
01:00 1013 29.91 842 24.86 3.2 37.7 77 -0.5 31.2
01:05 1013 29.91 842 24.86 3.2 37.8 77 -0.5 31.1
01:10 1013 29.91 842 24.86 3.1 37.6 78 -0.4 31.3
01:15 1013 29.91 842 24.86 2.9 37.2 79 -0.4 31.2
01:20 1013 29.91 842 24.86 2.8 37 78 -0.7 30.8
01:25 1013 29.91 842 24.86 2.9 37.2 78 -0.5 31.1
01:30 1013 29.91 842 24.86 2.9 37.2 79 -0.5 31.2
01:35 1013 29.91 842 24.86 2.9 37.3 78 -0.5 31.1
01:40 1012 29.88 842 24.86 2.9 37.2 78 -0.5 31.1
01:45 1012 29.88 842 24.86 2.8 37.1 79 -0.5 31.1
01:50 1012 29.88 842 24.86 2.7 36.9 80 -0.4 31.2
01:55 1012 29.88 842 24.86 2.6 36.7 80 -0.5 31.1
02:00 1012 29.88 841 24.83 2.7 36.8 79 -0.6 30.9
02:05 1012 29.88 841 24.83 2.8 37 79 -0.6 31
02:10 1012 29.88 841 24.83 2.7 36.8 79 -0.6 30.9
02:15 1012 29.88 841 24.83 2.6 36.7 79 -0.6 30.8
02:25 1012 29.88 841 24.83 2.7 36.8 79 -0.7 30.8
02:30 1012 29.88 841 24.83 2.8 37 79 -0.6 31
02:35 1012 29.88 841 24.83 2.7 36.8 79 -0.6 30.9
02:40 1012 29.88 841 24.83 2.6 36.6 79 -0.7 30.8
02:45 1012 29.88 841 24.83 2.5 36.5 80 -0.7 30.8
02:50 1012 29.88 841 24.83 2.4 36.3 80 -0.7 30.7
02:55 1012 29.88 841 24.83 2.4 36.3 80 -0.7 30.7
03:00 1012 29.88 841 24.83 2.5 36.6 79 -0.7 30.7
03:05 1012 29.88 841 24.83 2.5 36.5 79 -0.7 30.7
03:10 1012 29.88 841 24.83 2.5 36.5 79 -0.8 30.6
03:15 1012 29.88 841 24.83 2.5 36.6 80 -0.6 30.9
03:20 1012 29.88 841 24.83 2.5 36.4 79 -0.8 30.6
03:25 1011 29.85 841 24.83 2.6 36.7 79 -0.6 30.9
03:30 1011 29.85 841 24.83 2.5 36.5 79 -0.7 30.8
03:35 1011 29.85 841 24.83 2.5 36.6 79 -0.8 30.6
03:40 1011 29.85 840 24.81 2.6 36.6 79 -0.7 30.8
03:45 1011 29.85 840 24.81 2.3 36.1 80 -0.8 30.6
03:50 1011 29.85 840 24.81 2 35.6 81 -0.8 30.5
03:55 1011 29.85 840 24.81 2 35.7 81 -0.9 30.4
04:00 1011 29.85 840 24.81 1.9 35.5 82 -0.8 30.5
04:05 1011 29.85 840 24.81 2.1 35.7 81 -0.9 30.4
04:10 1011 29.85 840 24.81 2.4 36.4 80 -0.7 30.7
04:15 1011 29.85 840 24.81 2.6 36.6 79 -0.8 30.6
04:20 1011 29.85 840 24.81 2.4 36.4 80 -0.7 30.8
04:25 1011 29.85 840 24.81 2.4 36.3 80 -0.7 30.8
04:30 1011 29.85 840 24.81 2.4 36.4 80 -0.7 30.8
04:35 1011 29.85 840 24.81 2.2 35.9 81 -0.8 30.5
04:40 1011 29.85 840 24.81 2.6 36.7 79 -0.7 30.7
04:45 1011 29.85 840 24.81 2.7 36.8 78 -0.7 30.7
04:50 1011 29.85 840 24.81 2.4 36.4 80 -0.7 30.8
04:55 1011 29.85 841 24.83 2.1 35.8 82 -0.7 30.8
05:00 1011 29.85 841 24.83 1.9 35.4 82 -0.9 30.4
05:05 1011 29.85 841 24.83 1.9 35.4 83 -0.8 30.6
05:10 1011 29.85 841 24.83 1.8 35.2 82 -0.9 30.4
05:15 1011 29.85 840 24.81 1.8 35.2 83 -0.8 30.6
05:20 1011 29.85 840 24.81 1.9 35.4 82 -0.8 30.6
05:25 1011 29.85 840 24.81 2.1 35.8 81 -0.8 30.5
05:30 1011 29.85 841 24.83 2 35.7 82 -0.7 30.7
05:35 1011 29.85 841 24.83 1.5 34.6 84 -1 30.2
05:40 1011 29.85 841 24.83 1.7 35 82 -1 30.1
05:45 1011 29.85 841 24.83 1.5 34.7 83 -1.1 30.1
05:50 1011 29.85 841 24.83 1.1 34.1 85 -1.1 30
05:55 1011 29.85 841 24.83 1 33.9 85 -1.3 29.7
06:00 1011 29.85 841 24.83 1.5 34.7 83 -1.1 30.1
06:05 1011 29.85 840 24.81 1.9 35.4 82 -0.9 30.4
06:10 1011 29.85 840 24.81 2.1 35.8 81 -0.8 30.5
06:15 1011 29.85 840 24.81 1.6 34.9 83 -1 30.2
06:20 1011 29.85 840 24.81 1.1 34 85 -1.1 30
06:25 1011 29.85 840 24.81 1 33.8 86 -1 30.2
06:30 1011 29.85 840 24.81 1.1 34 86 -0.9 30.3
06:35 1011 29.85 840 24.81 1.5 34.7 84 -1 30.3
06:40 1011 29.85 840 24.81 1.5 34.7 84 -1 30.3
06:45 1011 29.85 840 24.81 1.3 34.3 85 -1 30.3
06:50 1011 29.85 840 24.81 1.3 34.4 85 -1 30.3
06:55 1011 29.85 840 24.81 1.3 34.3 85 -0.9 30.3
07:00 1011 29.85 840 24.81 1.3 34.4 85 -1 30.2
07:05 1011 29.85 840 24.81 1.3 34.3 85 -0.9 30.4
07:10 1011 29.85 840 24.81 1.1 34.1 86 -0.9 30.3
07:15 1011 29.85 840 24.81 1.1 33.9 87 -0.9 30.3
07:20 1011 29.85 840 24.81 1.4 34.4 85 -0.8 30.5
07:25 1011 29.85 840 24.81 1.6 35 84 -0.7 30.7
07:30 1011 29.85 840 24.81 1.8 35.2 83 -0.7 30.7
07:35 1011 29.85 840 24.81 2 35.6 83 -0.5 31
07:40 1011 29.85 840 24.81 2.1 35.8 83 -0.6 31
07:45 1011 29.85 840 24.81 2.2 36 82 -0.5 31.1
07:50 1011 29.85 840 24.81 2.3 36.2 82 -0.4 31.2
07:55 1011 29.85 840 24.81 2.4 36.3 82 -0.3 31.4
08:00 1011 29.85 840 24.81 2.4 36.4 81 -0.4 31.2
08:05 1011 29.85 840 24.81 2.8 37.1 80 -0.3 31.5
08:10 1011 29.85 840 24.81 3 37.4 79 -0.3 31.5
08:15 1011 29.85 840 24.81 3.4 38.2 78 -0.1 31.8
08:20 1011 29.85 840 24.81 3.6 38.4 78 0.2 32.3
08:25 1011 29.85 840 24.81 3.9 39 77 0.2 32.4
08:30 1011 29.85 840 24.81 4.1 39.5 76 0.2 32.4
08:35 1011 29.85 840 24.81 4.4 39.9 75 0.4 32.7
08:40 1011 29.85 840 24.81 5 41 74 0.8 33.4
08:45 1011 29.85 840 24.81 6 42.8 70 0.9 33.6
08:50 1011 29.85 840 24.81 6.8 44.2 65 0.6 33.1
08:55 1011 29.85 840 24.81 7.3 45.1 66 1.4 34.6
09:00 1011 29.85 840 24.81 7.9 46.3 61 1 33.7
09:05 1011 29.85 840 24.81 7.9 46.1 63 1.3 34.3
09:10 1011 29.85 840 24.81 8.3 46.9 58 0.5 32.9
09:15 1011 29.85 840 24.81 8.9 48 58 1.1 34
09:20 1011 29.85 840 24.81 8.6 47.5 59 1 33.9
09:25 1011 29.85 840 24.81 8.5 47.2 57 0.5 33
09:30 1011 29.85 840 24.81 8.2 46.7 59 0.7 33.3
09:35 1011 29.85 840 24.81 7.9 46.2 60 0.6 33
09:40 1011 29.85 840 24.81 7.9 46.2 60 0.6 33.1
09:45 1011 29.85 840 24.81 7.9 46.1 60 0.7 33.2
09:50 1011 29.85 840 24.81 7.7 45.8 65 1.6 35
09:55 1011 29.85 840 24.81 7.3 45.1 65 1.2 34.2
10:00 1011 29.85 840 24.81 7.6 45.6 65 1.4 34.5
10:05 1011 29.85 840 24.81 7.8 46 63 1.2 34.2
10:10 1011 29.85 840 24.81 8.1 46.6 63 1.6 34.9
10:15 1011 29.85 840 24.81 7.8 46 64 1.4 34.6
10:20 1011 29.85 840 24.81 8.1 46.5 64 1.7 35
10:25 1011 29.85 840 24.81 7.7 45.8 66 1.6 35
10:30 1011 29.85 840 24.81 7.8 46 63 1.2 34.1
10:35 1011 29.85 840 24.81 7.4 45.3 65 1.3 34.4
10:40 1011 29.85 840 24.81 7.6 45.7 63 1.1 33.9
10:45 1011 29.85 840 24.81 8.5 47.2 62 1.5 34.7
10:50 1011 29.85 840 24.81 8.4 47.1 62 1.6 34.8
10:55 1011 29.85 840 24.81 8.3 47 62 1.5 34.7
11:00 1011 29.85 840 24.81 8.2 46.7 62 1.5 34.6
11:05 1011 29.85 840 24.81 8.3 46.9 62 1.5 34.7
11:10 1011 29.85 840 24.81 8.5 47.2 62 1.5 34.7
11:15 1011 29.85 840 24.81 8.6 47.4 60 1.2 34.1
11:20 1011 29.85 840 24.81 8.9 47.9 58 1.1 34
11:25 1011 29.85 840 24.81 8.8 47.9 58 1.2 34.1
11:30 1011 29.85 840 24.81 8.6 47.5 58 0.9 33.6
11:35 1011 29.85 840 24.81 8.5 47.4 58 0.9 33.5
11:40 1011 29.85 840 24.81 8.6 47.4 59 1 33.7
11:45 1011 29.85 840 24.81 8.6 47.4 59 1.1 33.9
11:50 1011 29.85 840 24.81 8.9 48 57 0.9 33.7
11:55 1010 29.83 840 24.81 9.4 49 55 0.8 33.5
12:00 1010 29.83 840 24.81 9.5 49.1 56 1.1 34
12:05 1010 29.83 840 24.81 9.7 49.5 54 0.9 33.6
12:10 1010 29.83 840 24.81 9.7 49.4 54 0.9 33.6
12:15 1010 29.83 840 24.81 9.8 49.7 53 0.8 33.4
12:20 1010 29.83 840 24.81 10.5 50.8 51 0.9 33.6
12:25 1010 29.83 839 24.78 10.5 50.9 53 1.3 34.3
12:30 1010 29.83 839 24.78 10.8 51.4 49 0.4 32.7
12:35 1010 29.83 839 24.78 11.1 52.1 50 1 33.9
12:40 1010 29.83 839 24.78 10.9 51.5 50 0.8 33.4
12:45 1010 29.83 839 24.78 11.1 52 51 1.4 34.6
12:50 1010 29.83 839 24.78 10.6 51 52 1.2 34.2
12:55 1010 29.83 839 24.78 10.2 50.3 54 1.2 34.2
13:00 1010 29.83 839 24.78 10.1 50.2 52 0.9 33.6
13:05 1010 29.83 839 24.78 10.3 50.5 52 0.8 33.5
13:10 1010 29.83 839 24.78 10.5 50.9 50 0.7 33.2
13:15 1010 29.83 839 24.78 10.4 50.8 50 0.6 33.1
13:20 1010 29.83 839 24.78 10.4 50.8 51 0.8 33.4
13:25 1010 29.83 839 24.78 10.5 50.9 51 0.9 33.7
13:30 1010 29.83 839 24.78 10.5 50.9 51 0.9 33.6
13:35 1010 29.83 839 24.78 10.7 51.3 50 0.9 33.6
13:40 1010 29.83 839 24.78 10.6 51.1 51 0.8 33.5
13:45 1010 29.83 839 24.78 10.5 50.9 51 0.9 33.6
13:50 1010 29.83 839 24.78 10.5 51 51 1 33.7
13:55 1010 29.83 839 24.78 10.7 51.3 50 0.9 33.6
14:00 1010 29.83 839 24.78 10.8 51.4 50 0.7 33.3
14:05 1010 29.83 839 24.78 10.9 51.6 49 0.7 33.2
14:10 1010 29.83 839 24.78 11 51.7 49 0.8 33.4
14:15 1010 29.83 839 24.78 10.8 51.4 49 0.6 33
14:20 1010 29.83 839 24.78 10.8 51.4 49 0.7 33.2
14:25 1010 29.83 839 24.78 10.7 51.2 49 0.5 32.9
14:30 1010 29.83 839 24.78 10.8 51.4 48 0.4 32.6
14:35 1010 29.83 839 24.78 11 51.7 50 0.9 33.6
14:40 1010 29.83 839 24.78 10.5 50.9 52 1 33.8
14:45 1010 29.83 839 24.78 10.2 50.3 50 0.4 32.6
14:50 1010 29.83 839 24.78 10.4 50.7 50 0.5 33
14:55 1010 29.83 839 24.78 10.3 50.6 50 0.5 32.8
15:00 1010 29.83 839 24.78 10.8 51.4 50 0.9 33.6
15:05 1010 29.83 839 24.78 10.5 50.9 54 1.5 34.8
15:10 1010 29.83 839 24.78 10.6 51.1 51 1 33.8
15:15 1010 29.83 839 24.78 10.7 51.3 50 0.8 33.5
15:20 1010 29.83 839 24.78 10.7 51.2 51 1.1 34
15:25 1010 29.83 839 24.78 10.2 50.3 51 0.6 33.1
15:30 1010 29.83 839 24.78 10.2 50.4 52 0.8 33.5
15:35 1010 29.83 839 24.78 10.3 50.5 51 0.6 33.1
15:40 1010 29.83 839 24.78 10.4 50.7 52 0.9 33.7
15:45 1010 29.83 839 24.78 10.2 50.3 52 0.9 33.6
15:50 1010 29.83 839 24.78 10.2 50.4 52 0.8 33.4
15:55 1010 29.83 839 24.78 10.5 50.9 50 0.6 33.1
16:00 1010 29.83 839 24.78 10.3 50.5 53 1 33.9
16:05 1010 29.83 839 24.78 10.2 50.4 51 0.5 32.9
16:10 1010 29.83 839 24.78 10.4 50.7 52 0.9 33.6
16:15 1010 29.83 839 24.78 10.2 50.4 52 0.9 33.7
16:20 1010 29.83 839 24.78 10.2 50.4 52 1 33.7
16:25 1010 29.83 839 24.78 10.3 50.5 52 1 33.8
16:30 1010 29.83 839 24.78 10.3 50.5 53 1.2 34.1
16:35 1010 29.83 839 24.78 10.1 50.2 53 0.9 33.7
16:40 1010 29.83 839 24.78 10.4 50.7 52 1 33.9
16:45 1010 29.83 839 24.78 10.3 50.6 53 1.1 34
16:50 1010 29.83 839 24.78 10.2 50.3 53 1.1 34.1
16:55 1010 29.83 839 24.78 10.1 50.2 54 1.2 34.1
17:00 1010 29.83 839 24.78 10.3 50.5 54 1.3 34.4
17:05 1010 29.83 839 24.78 10.2 50.4 55 1.6 34.9
17:10 1010 29.83 839 24.78 10.1 50.2 55 1.6 34.9
17:15 1010 29.83 839 24.78 10 50.1 56 1.7 35
17:20 1010 29.83 839 24.78 9.9 49.8 57 1.7 35.1
17:25 1010 29.83 839 24.78 9.8 49.7 57 1.6 35
17:30 1010 29.83 839 24.78 9.9 49.8 56 1.6 34.8
17:35 1010 29.83 839 24.78 9.9 49.8 55 1.4 34.5
17:40 1010 29.83 840 24.81 9.9 49.9 56 1.5 34.8
17:45 1010 29.83 840 24.81 9.8 49.6 57 1.6 34.9
17:50 1010 29.83 840 24.81 9.6 49.3 58 1.8 35.3
17:55 1010 29.83 840 24.81 9.4 48.9 59 1.8 35.2
18:00 1010 29.83 840 24.81 9.1 48.5 60 1.8 35.2
18:05 1010 29.83 840 24.81 8.9 48.1 61 1.9 35.4
18:10 1011 29.85 840 24.81 8.8 47.8 61 1.8 35.2
18:15 1011 29.85 840 24.81 8.7 47.7 62 1.9 35.4
18:20 1011 29.85 840 24.81 8.6 47.4 62 1.8 35.3
18:25 1011 29.85 840 24.81 8.4 47.1 63 1.9 35.4
18:30 1011 29.85 840 24.81 8.2 46.8 64 1.9 35.3
18:35 1011 29.85 840 24.81 8.1 46.6 65 1.9 35.4
18:40 1011 29.85 840 24.81 7.9 46.3 65 1.8 35.2
18:45 1011 29.85 840 24.81 7.9 46.2 65 1.9 35.3
18:50 1011 29.85 840 24.81 7.8 46.1 66 1.8 35.2
18:55 1011 29.85 840 24.81 7.7 45.8 66 1.8 35.3
19:00 1011 29.85 840 24.81 7.7 45.9 67 1.9 35.4
19:05 1011 29.85 840 24.81 7.8 46 66 1.9 35.4
19:10 1011 29.85 840 24.81 7.9 46.2 58 0.1 32.1
19:15 1011 29.85 840 24.81 8.1 46.6 54 -0.7 30.7
19:20 1011 29.85 840 24.81 8.3 46.9 48 -2.1 28.3
19:25 1011 29.85 840 24.81 8.4 47.1 44 -3.3 26.1
19:30 1011 29.85 840 24.81 8.4 47.1 41 -4 24.8
19:35 1011 29.85 840 24.81 8.3 47 41 -4.3 24.3
19:40 1011 29.85 841 24.83 8.3 46.9 41 -4.1 24.6
19:45 1011 29.85 841 24.83 8.2 46.7 42 -3.9 25
19:50 1011 29.85 841 24.83 8.1 46.6 43 -3.8 25.2
19:55 1012 29.88 841 24.83 8.1 46.5 43 -3.7 25.4
20:00 1012 29.88 841 24.83 8 46.3 45 -3.3 26.1
20:05 1012 29.88 841 24.83 7.9 46.2 46 -3 26.6
20:10 1012 29.88 841 24.83 7.9 46.1 47 -2.8 27
20:15 1012 29.88 841 24.83 7.6 45.7 47 -2.8 26.9
20:20 1012 29.88 841 24.83 7.5 45.5 49 -2.4 27.6
20:25 1012 29.88 841 24.83 7.3 45.2 51 -2.2 28.1
20:30 1012 29.88 842 24.86 7.3 45.1 51 -2.3 27.9
20:35 1012 29.88 842 24.86 7.4 45.3 50 -2.2 28
20:40 1013 29.91 842 24.86 7.4 45.4 51 -2 28.4
20:45 1013 29.91 842 24.86 7.3 45.2 52 -1.9 28.5
20:50 1013 29.91 842 24.86 7.2 45 52 -2 28.5
20:55 1013 29.91 842 24.86 7.2 44.9 52 -2.1 28.2
21:00 1013 29.91 842 24.86 7.1 44.8 52 -2.1 28.2
21:05 1013 29.91 842 24.86 7 44.6 53 -2 28.4
21:10 1013 29.91 842 24.86 6.8 44.3 53 -2.1 28.2
21:15 1013 29.91 842 24.86 6.7 44.1 53 -2.3 27.9
21:20 1013 29.91 842 24.86 6.7 44.1 50 -2.9 26.8
21:25 1013 29.91 842 24.86 6.8 44.2 51 -2.6 27.3
21:30 1013 29.91 842 24.86 6.6 43.9 53 -2.4 27.7
21:35 1013 29.91 842 24.86 6.4 43.5 51 -2.9 26.7
21:40 1013 29.91 842 24.86 6.4 43.5 52 -2.8 27
21:45 1013 29.91 842 24.86 6.3 43.4 52 -2.8 27
21:50 1013 29.91 842 24.86 6.3 43.4 52 -2.8 26.9
21:55 1013 29.91 842 24.86 6.2 43.2 52 -2.9 26.8
22:00 1013 29.91 843 24.89 6.2 43.2 53 -2.7 27.2
22:05 1013 29.91 843 24.89 6.1 43 54 -2.4 27.7
22:10 1013 29.91 843 24.89 5.9 42.6 56 -2.3 27.9
22:15 1014 29.94 843 24.89 5.8 42.4 55 -2.6 27.4
22:20 1014 29.94 843 24.89 5.8 42.4 54 -2.7 27.2
22:25 1014 29.94 843 24.89 5.9 42.7 54 -2.7 27.2
22:30 1014 29.94 843 24.89 5.9 42.7 55 -2.5 27.5
22:35 1014 29.94 843 24.89 5.9 42.6 54 -2.6 27.4
22:40 1014 29.94 843 24.89 5.9 42.7 54 -2.7 27.1
22:45 1014 29.94 843 24.89 5.9 42.6 55 -2.5 27.5
22:50 1014 29.94 843 24.89 5.8 42.5 55 -2.4 27.7
22:55 1014 29.94 843 24.89 5.8 42.4 56 -2.3 27.8
23:00 1014 29.94 843 24.89 5.7 42.2 57 -2.3 27.9
23:05 1014 29.94 843 24.89 5.6 42.1 58 -2.1 28.2
23:10 1014 29.94 843 24.89 5.6 42 58 -2.1 28.2
23:15 1014 29.94 843 24.89 5.6 42.1 59 -1.8 28.8
23:20 1014 29.94 843 24.89 5.5 41.8 61 -1.4 29.6
23:25 1014 29.94 843 24.89 5.2 41.4 63 -1.2 29.8
23:30 1014 29.94 843 24.89 5.1 41.2 64 -1.1 30
23:35 1014 29.94 843 24.89 5.1 41.3 63 -1.2 29.8
23:40 1014 29.94 843 24.89 5.1 41.3 66 -0.8 30.6
23:45 1014 29.94 843 24.89 5.1 41.1 66 -0.7 30.8
23:50 1014 29.94 843 24.89 5 41 67 -0.6 31
23:55 1014 29.94 843 24.89 4.9 40.7 68 -0.5 31.1
24:00 1014 29.94 843 24.89 4.8 40.6 69 -0.5 31.1